Time,TemperatureF,DewpointF,PressureIn,WindDirection,WindDirectionDegrees,WindSpeedMPH,WindSpeedGustMPH,Humidity,HourlyPrecipIn,Conditions,Clouds,dailyrainin,SoftwareType,DateUTC
2013-06-06 00:03:00,52.3,45.7,30.16,South,180,0.0,3.1,78,0.00,,,0.00,WeatherCatV1.10B1784,2013-06-05 23:03:00,
2013-06-06 00:13:00,52.2,45.9,30.16,SSE,157,1.6,1.6,79,0.00,,,0.00,WeatherCatV1.10B1784,2013-06-05 23:13:00,
2013-06-06 00:23:00,52.0,45.7,30.16,South,180,0.0,2.2,79,0.00,,,0.00,WeatherCatV1.10B1784,2013-06-05 23:23:00,
2013-06-06 00:33:00,51.8,45.5,30.17,SSE,157,0.0,2.0,79,0.00,,,0.00,WeatherCatV1.10B1784,2013-06-05 23:33:00,
2013-06-06 00:43:00,52.0,45.7,30.16,South,180,0.0,2.2,79,0.00,,,0.00,WeatherCatV1.10B1784,2013-06-05 23:43:00,
2013-06-06 00:53:00,52.0,46.0,30.17,South,180,2.5,2.5,80,0.00,,,0.00,WeatherCatV1.10B1784,2013-06-05 23:53:00,
2013-06-06 01:03:00,51.8,45.9,30.16,South,180,0.0,1.6,80,0.00,,,0.00,WeatherCatV1.10B1784,2013-06-06 00:03:00,
2013-06-06 01:13:00,51.6,45.7,30.16,South,180,0.0,2.2,80,0.00,,,0.00,WeatherCatV1.10B1784,2013-06-06 00:13:00,
2013-06-06 01:23:00,51.3,45.1,30.17,South,180,0.0,5.6,80,0.00,,,0.00,WeatherCatV1.10B1784,2013-06-06 00:23:00,
2013-06-06 01:33:00,50.7,44.8,30.16,SSW,202,0.0,3.1,80,0.00,,,0.00,WeatherCatV1.10B1784,2013-06-06 00:33:00,
2013-06-06 01:43:00,50.4,44.7,30.16,SSW,202,0.0,0.9,81,0.00,,,0.00,WeatherCatV1.10B1784,2013-06-06 00:43:00,
2013-06-06 01:53:00,50.0,44.9,30.16,SSW,202,0.0,1.3,82,0.00,,,0.00,WeatherCatV1.10B1784,2013-06-06 00:53:00,
2013-06-06 02:03:00,49.6,44.3,30.16,South,180,0.0,0.0,82,0.00,,,0.00,WeatherCatV1.10B1784,2013-06-06 01:03:00,
2013-06-06 02:13:00,49.3,43.6,30.16,South,180,1.1,1.6,82,0.00,,,0.00,WeatherCatV1.10B1784,2013-06-06 01:13:00,
2013-06-06 02:23:00,48.9,43.6,30.15,South,180,0.0,0.0,82,0.00,,,0.00,WeatherCatV1.10B1784,2013-06-06 01:23:00,
2013-06-06 02:33:00,48.7,43.8,30.16,South,180,0.0,0.0,83,0.00,,,0.00,WeatherCatV1.10B1784,2013-06-06 01:33:00,
2013-06-06 02:43:00,48.7,43.8,30.16,South,180,0.0,3.1,83,0.00,,,0.00,WeatherCatV1.10B1784,2013-06-06 01:43:00,
2013-06-06 02:53:00,48.7,44.1,30.16,South,180,0.0,0.0,84,0.00,,,0.00,WeatherCatV1.10B1784,2013-06-06 01:53:00,
2013-06-06 03:13:00,48.9,44.2,30.16,South,180,0.0,0.0,84,0.00,,,0.00,WeatherCatV1.10B1784,2013-06-06 02:13:00,
2013-06-06 03:23:00,49.1,44.4,30.16,South,180,1.1,1.1,84,0.00,,,0.00,WeatherCatV1.10B1784,2013-06-06 02:23:00,
2013-06-06 03:33:00,49.3,44.6,30.16,South,180,0.7,1.1,84,0.00,,,0.00,WeatherCatV1.10B1784,2013-06-06 02:33:00,
2013-06-06 03:43:00,49.6,44.9,30.17,South,180,0.9,0.9,84,0.00,,,0.00,WeatherCatV1.10B1784,2013-06-06 02:43:00,
2013-06-06 03:53:00,49.6,44.9,30.17,South,180,0.0,1.3,84,0.00,,,0.00,WeatherCatV1.10B1784,2013-06-06 02:53:00,
2013-06-06 04:03:00,49.6,44.9,30.16,South,180,0.0,0.0,84,0.00,,,0.00,WeatherCatV1.10B1784,2013-06-06 03:03:00,
2013-06-06 04:13:00,49.5,44.8,30.17,South,180,0.0,0.0,84,0.00,,,0.00,WeatherCatV1.10B1784,2013-06-06 03:13:00,
2013-06-06 04:23:00,49.5,45.1,30.17,South,180,0.0,0.7,85,0.00,,,0.00,WeatherCatV1.10B1784,2013-06-06 03:23:00,
2013-06-06 04:33:00,49.6,45.2,30.17,South,180,0.0,0.9,85,0.00,,,0.00,WeatherCatV1.10B1784,2013-06-06 03:33:00,
2013-06-06 04:43:00,49.8,45.4,30.17,South,180,0.0,1.3,85,0.00,,,0.00,WeatherCatV1.10B1784,2013-06-06 03:43:00,
2013-06-06 04:53:00,49.8,45.4,30.16,South,180,0.0,1.6,85,0.00,,,0.00,WeatherCatV1.10B1784,2013-06-06 03:53:00,
2013-06-06 05:03:00,50.2,45.8,30.17,South,180,0.0,1.6,85,0.00,,,0.00,WeatherCatV1.10B1784,2013-06-06 04:03:00,
2013-06-06 05:13:00,50.2,45.8,30.17,South,180,0.0,0.7,85,0.00,,,0.00,WeatherCatV1.10B1784,2013-06-06 04:13:00,
2013-06-06 05:23:00,50.4,46.0,30.17,South,180,0.0,1.3,85,0.00,,,0.00,WeatherCatV1.10B1784,2013-06-06 04:23:00,
2013-06-06 05:33:00,50.4,46.0,30.17,South,180,0.0,1.1,85,0.00,,,0.00,WeatherCatV1.10B1784,2013-06-06 04:33:00,
2013-06-06 05:43:00,50.5,46.1,30.17,South,180,0.0,2.0,85,0.00,,,0.00,WeatherCatV1.10B1784,2013-06-06 04:43:00,
2013-06-06 05:53:00,50.7,46.0,30.17,South,180,0.0,0.0,84,0.00,,,0.00,WeatherCatV1.10B1784,2013-06-06 04:53:00,
2013-06-06 06:03:00,50.9,46.2,30.17,South,180,0.0,0.0,84,0.00,,,0.00,WeatherCatV1.10B1784,2013-06-06 05:03:00,
2013-06-06 06:13:00,51.3,46.5,30.17,South,180,0.0,0.0,84,0.00,,,0.00,WeatherCatV1.10B1784,2013-06-06 05:13:00,
2013-06-06 06:23:00,51.6,46.9,30.17,South,180,0.0,0.0,84,0.00,,,0.00,WeatherCatV1.10B1784,2013-06-06 05:23:00,
2013-06-06 06:33:00,51.8,46.6,30.18,South,180,0.0,0.0,83,0.00,,,0.00,WeatherCatV1.10B1784,2013-06-06 05:33:00,
2013-06-06 06:43:00,52.2,47.1,30.18,South,180,0.0,1.6,83,0.00,,,0.00,WeatherCatV1.10B1784,2013-06-06 05:43:00,
2013-06-06 06:53:00,52.5,47.5,30.18,SSW,202,0.0,0.9,83,0.00,,,0.00,WeatherCatV1.10B1784,2013-06-06 05:53:00,
2013-06-06 07:03:00,52.9,47.6,30.18,NNW,337,0.0,2.0,82,0.00,,,0.00,WeatherCatV1.10B1784,2013-06-06 06:03:00,
2013-06-06 07:13:00,52.7,47.1,30.19,North,0,0.0,0.0,81,0.00,,,0.00,WeatherCatV1.10B1784,2013-06-06 06:13:00,
2013-06-06 07:23:00,53.1,47.4,30.18,NNE,22,0.0,0.0,81,0.00,,,0.00,WeatherCatV1.10B1784,2013-06-06 06:23:00,
2013-06-06 07:33:00,53.4,47.8,30.18,ESE,112,0.0,1.3,81,0.00,,,0.00,WeatherCatV1.10B1784,2013-06-06 06:33:00,
2013-06-06 07:43:00,54.0,48.0,30.18,SE,135,0.0,0.9,80,0.00,,,0.00,WeatherCatV1.10B1784,2013-06-06 06:43:00,
2013-06-06 07:53:00,54.1,48.3,30.18,SE,135,0.0,0.0,80,0.00,,,0.00,WeatherCatV1.10B1784,2013-06-06 06:53:00,
2013-06-06 08:03:00,55.0,48.6,30.19,SE,135,0.0,0.0,79,0.00,,,0.00,WeatherCatV1.10B1784,2013-06-06 07:03:00,
2013-06-06 08:13:00,55.9,48.9,30.18,SE,135,0.0,1.1,78,0.00,,,0.00,WeatherCatV1.10B1784,2013-06-06 07:13:00,
2013-06-06 08:23:00,55.8,48.6,30.18,SW,225,0.0,1.3,77,0.00,,,0.00,WeatherCatV1.10B1784,2013-06-06 07:23:00,
2013-06-06 08:48:00,56.7,49.5,30.18,South,180,0.0,0.0,77,0.00,,,0.00,WeatherCatV1.10B1784,2013-06-06 07:48:00,
2013-06-06 08:58:00,56.8,49.6,30.18,WSW,247,0.0,0.0,77,0.00,,,0.00,WeatherCatV1.10B1784,2013-06-06 07:58:00,
2013-06-06 09:08:00,57.0,49.8,30.18,WSW,247,0.0,0.0,77,0.00,,,0.00,WeatherCatV1.10B1784,2013-06-06 08:08:00,
2013-06-06 09:18:00,57.4,50.2,30.18,SW,225,0.0,0.0,77,0.00,,,0.00,WeatherCatV1.10B1784,2013-06-06 08:18:00,
2013-06-06 09:28:00,57.4,50.2,30.18,WNW,292,0.0,0.0,77,0.00,,,0.00,WeatherCatV1.10B1784,2013-06-06 08:28:00,
2013-06-06 09:38:00,57.7,50.2,30.18,NW,315,0.0,0.7,76,0.00,,,0.00,WeatherCatV1.10B1784,2013-06-06 08:38:00,
2013-06-06 09:48:00,57.7,50.2,30.18,NNW,337,0.0,0.0,76,0.00,,,0.00,WeatherCatV1.10B1784,2013-06-06 08:48:00,
2013-06-06 09:58:00,57.9,50.4,30.18,NNW,337,0.0,0.0,76,0.00,,,0.00,WeatherCatV1.10B1784,2013-06-06 08:58:00,
2013-06-06 10:08:00,58.8,50.9,30.19,SE,135,0.0,0.0,75,0.00,,,0.00,WeatherCatV1.10B1784,2013-06-06 09:08:00,
2013-06-06 10:18:00,59.2,51.3,30.19,South,180,0.0,0.0,75,0.00,,,0.00,WeatherCatV1.10B1784,2013-06-06 09:18:00,
2013-06-06 10:28:00,59.5,51.6,30.19,South,180,0.0,0.0,75,0.00,,,0.00,WeatherCatV1.10B1784,2013-06-06 09:28:00,
2013-06-06 10:38:00,60.4,52.5,30.19,SSE,157,0.0,0.0,75,0.00,,,0.00,WeatherCatV1.10B1784,2013-06-06 09:38:00,
2013-06-06 10:48:00,60.6,52.3,30.19,NNW,337,2.2,2.2,74,0.00,,,0.00,WeatherCatV1.10B1784,2013-06-06 09:48:00,
2013-06-06 10:58:00,59.5,51.6,30.20,North,0,0.0,1.8,75,0.00,,,0.00,WeatherCatV1.10B1784,2013-06-06 09:58:00,
2013-06-06 11:08:00,59.4,51.8,30.19,NNE,22,2.9,2.9,76,0.00,,,0.00,WeatherCatV1.10B1784,2013-06-06 10:08:00,
2013-06-06 11:18:00,59.9,52.7,30.20,NNE,22,1.8,2.7,77,0.00,,,0.00,WeatherCatV1.10B1784,2013-06-06 10:18:00,
2013-06-06 11:28:00,61.3,53.7,30.20,NNE,22,2.5,4.0,76,0.00,,,0.00,WeatherCatV1.10B1784,2013-06-06 10:28:00,
2013-06-06 11:38:00,61.2,52.8,30.20,NE,45,2.5,4.7,74,0.00,,,0.00,WeatherCatV1.10B1784,2013-06-06 10:38:00,
2013-06-06 11:48:00,61.3,53.0,30.19,NE,45,2.0,6.3,74,0.00,,,0.00,WeatherCatV1.10B1784,2013-06-06 10:48:00,
2013-06-06 11:58:00,61.0,52.3,30.19,North,0,1.8,2.0,73,0.00,,,0.00,WeatherCatV1.10B1784,2013-06-06 10:58:00,
2013-06-06 12:08:00,60.6,52.0,30.20,NNW,337,0.0,1.6,73,0.00,,,0.00,WeatherCatV1.10B1784,2013-06-06 11:08:00,
2013-06-06 12:18:00,60.6,52.3,30.20,NNW,337,2.7,2.7,74,0.00,,,0.00,WeatherCatV1.10B1784,2013-06-06 11:18:00,
2013-06-06 12:28:00,62.1,52.9,30.20,NW,315,0.0,0.0,72,0.00,,,0.00,WeatherCatV1.10B1784,2013-06-06 11:28:00,
2013-06-06 12:38:00,63.1,53.2,30.20,NW,315,0.0,1.3,70,0.00,,,0.00,WeatherCatV1.10B1784,2013-06-06 11:38:00,
2013-06-06 12:48:00,64.2,53.0,30.20,East,90,0.0,2.9,67,0.00,,,0.00,WeatherCatV1.10B1784,2013-06-06 11:48:00,
2013-06-06 12:58:00,64.2,52.6,30.20,NW,315,0.0,2.0,66,0.00,,,0.00,WeatherCatV1.10B1784,2013-06-06 11:58:00,
2013-06-06 13:08:00,64.2,51.7,30.20,SSE,157,0.0,1.8,64,0.00,,,0.00,WeatherCatV1.10B1784,2013-06-06 12:08:00,
2013-06-06 13:18:00,66.0,52.6,30.20,North,0,0.0,2.9,62,0.00,,,0.00,WeatherCatV1.10B1784,2013-06-06 12:18:00,
2013-06-06 13:28:00,66.4,52.6,30.20,NNE,22,1.1,6.5,61,0.00,,,0.00,WeatherCatV1.10B1784,2013-06-06 12:28:00,
2013-06-06 13:38:00,66.7,52.5,30.20,ENE,67,2.7,5.8,60,0.00,,,0.00,WeatherCatV1.10B1784,2013-06-06 12:38:00,
2013-06-06 13:48:00,67.3,52.0,30.20,NNE,22,3.8,3.8,58,0.00,,,0.00,WeatherCatV1.10B1784,2013-06-06 12:48:00,
2013-06-06 13:58:00,67.3,52.0,30.19,NNW,337,2.5,2.5,58,0.00,,,0.00,WeatherCatV1.10B1784,2013-06-06 12:58:00,
2013-06-06 14:08:00,68.5,52.8,30.19,NNE,22,4.0,4.5,57,0.00,,,0.00,WeatherCatV1.10B1784,2013-06-06 13:08:00,
2013-06-06 14:18:00,70.3,52.9,30.19,NNE,22,2.0,3.6,54,0.00,,,0.00,WeatherCatV1.10B1784,2013-06-06 13:18:00,
2013-06-06 14:28:00,68.2,50.8,30.19,North,0,4.5,9.4,54,0.00,,,0.00,WeatherCatV1.10B1784,2013-06-06 13:28:00,
2013-06-06 14:38:00,67.1,51.3,30.19,North,0,3.4,5.8,57,0.00,,,0.00,WeatherCatV1.10B1784,2013-06-06 13:38:00,
2013-06-06 14:48:00,67.5,51.2,30.20,SSE,157,0.0,1.6,56,0.00,,,0.00,WeatherCatV1.10B1784,2013-06-06 13:48:00,
2013-06-06 14:58:00,68.2,51.3,30.19,North,0,0.0,3.6,55,0.00,,,0.00,WeatherCatV1.10B1784,2013-06-06 13:58:00,
2013-06-06 15:08:00,67.8,50.5,30.19,NE,45,3.6,3.6,54,0.00,,,0.00,WeatherCatV1.10B1784,2013-06-06 14:08:00,
2013-06-06 15:18:00,67.3,50.5,30.19,North,0,1.1,4.0,55,0.00,,,0.00,WeatherCatV1.10B1784,2013-06-06 14:18:00,
2013-06-06 15:28:00,67.8,50.5,30.20,North,0,1.6,1.6,54,0.00,,,0.00,WeatherCatV1.10B1784,2013-06-06 14:28:00,
2013-06-06 15:38:00,68.7,51.3,30.19,WSW,247,0.0,1.6,54,0.00,,,0.00,WeatherCatV1.10B1784,2013-06-06 14:38:00,
2013-06-06 15:48:00,70.7,51.7,30.19,NNW,337,0.0,3.1,51,0.00,,,0.00,WeatherCatV1.10B1784,2013-06-06 14:48:00,
2013-06-06 15:58:00,68.9,49.5,30.19,NNE,22,3.1,6.5,50,0.00,,,0.00,WeatherCatV1.10B1784,2013-06-06 14:58:00,
2013-06-06 16:08:00,68.7,49.9,30.19,NE,45,0.0,4.5,51,0.00,,,0.00,WeatherCatV1.10B1784,2013-06-06 15:08:00,
2013-06-06 16:18:00,69.3,49.9,30.19,North,0,0.0,3.4,51,0.00,,,0.00,WeatherCatV1.10B1784,2013-06-06 15:18:00,
2013-06-06 16:28:00,69.4,49.4,30.19,NNW,337,1.6,2.0,49,0.00,,,0.00,WeatherCatV1.10B1784,2013-06-06 15:28:00,
2013-06-06 16:38:00,69.4,49.4,30.18,North,0,4.9,4.9,49,0.00,,,0.00,WeatherCatV1.10B1784,2013-06-06 15:38:00,
2013-06-06 16:48:00,69.6,49.0,30.18,NNE,22,0.0,4.5,48,0.00,,,0.00,WeatherCatV1.10B1784,2013-06-06 15:48:00,
2013-06-06 16:58:00,70.3,49.5,30.19,North,0,2.9,2.9,48,0.00,,,0.00,WeatherCatV1.10B1784,2013-06-06 15:58:00,
2013-06-06 17:08:00,70.5,48.6,30.18,West,270,0.0,2.9,46,0.00,,,0.00,WeatherCatV1.10B1784,2013-06-06 16:08:00,
2013-06-06 17:18:00,70.2,47.7,30.19,NE,45,3.6,8.5,45,0.00,,,0.00,WeatherCatV1.10B1784,2013-06-06 16:18:00,
2013-06-06 17:28:00,70.2,47.7,30.19,NW,315,0.0,3.8,45,0.00,,,0.00,WeatherCatV1.10B1784,2013-06-06 16:28:00,
2013-06-06 17:38:00,70.7,47.6,30.18,West,270,0.0,4.7,44,0.00,,,0.00,WeatherCatV1.10B1784,2013-06-06 16:38:00,
2013-06-06 17:48:00,70.7,47.0,30.18,NNW,337,1.3,4.2,43,0.00,,,0.00,WeatherCatV1.10B1784,2013-06-06 16:48:00,
2013-06-06 17:58:00,71.4,47.1,30.18,NNW,337,2.2,2.5,42,0.00,,,0.00,WeatherCatV1.10B1784,2013-06-06 16:58:00,
2013-06-06 18:08:00,71.8,46.8,30.18,North,0,0.0,0.0,41,0.00,,,0.00,WeatherCatV1.10B1784,2013-06-06 17:08:00,
2013-06-06 18:18:00,72.0,46.4,30.18,North,0,2.7,2.7,40,0.00,,,0.00,WeatherCatV1.10B1784,2013-06-06 17:18:00,
2013-06-06 18:28:00,72.1,46.5,30.18,SE,135,1.6,1.6,40,0.00,,,0.00,WeatherCatV1.10B1784,2013-06-06 17:28:00,
2013-06-06 18:38:00,72.9,46.3,30.18,West,270,0.0,0.0,39,0.00,,,0.00,WeatherCatV1.10B1784,2013-06-06 17:38:00,
2013-06-06 18:48:00,73.2,45.2,30.18,SSW,202,0.0,0.9,37,0.00,,,0.00,WeatherCatV1.10B1784,2013-06-06 17:48:00,
2013-06-06 18:58:00,72.3,43.7,30.19,SE,135,0.0,0.0,36,0.00,,,0.00,WeatherCatV1.10B1784,2013-06-06 17:58:00,
2013-06-06 19:08:00,72.7,45.5,30.19,NNW,337,0.0,0.0,37,0.00,,,0.00,WeatherCatV1.10B1784,2013-06-06 18:08:00,
2013-06-06 19:18:00,70.5,48.6,30.19,ESE,112,0.0,0.0,46,0.00,,,0.00,WeatherCatV1.10B1784,2013-06-06 18:18:00,
2013-06-06 19:28:00,69.1,49.7,30.19,SSW,202,0.0,2.5,50,0.00,,,0.00,WeatherCatV1.10B1784,2013-06-06 18:28:00,
2013-06-06 19:38:00,67.8,49.5,30.19,SSE,157,0.0,3.4,52,0.00,,,0.00,WeatherCatV1.10B1784,2013-06-06 18:38:00,
2013-06-06 19:48:00,66.7,49.5,30.19,SSE,157,2.0,2.2,54,0.00,,,0.00,WeatherCatV1.10B1784,2013-06-06 18:48:00,
2013-06-06 19:58:00,65.7,49.5,30.20,SW,225,0.0,1.8,56,0.00,,,0.00,WeatherCatV1.10B1784,2013-06-06 18:58:00,
2013-06-06 20:08:00,64.9,49.7,30.20,SSW,202,1.3,1.3,58,0.00,,,0.00,WeatherCatV1.10B1784,2013-06-06 19:08:00,
2013-06-06 20:18:00,64.2,49.5,30.20,SSW,202,0.0,0.0,59,0.00,,,0.00,WeatherCatV1.10B1784,2013-06-06 19:18:00,
2013-06-06 20:28:00,63.7,49.9,30.20,WSW,247,0.0,1.6,61,0.00,,,0.00,WeatherCatV1.10B1784,2013-06-06 19:28:00,
2013-06-06 20:38:00,63.3,49.9,30.21,SSW,202,0.0,0.0,62,0.00,,,0.00,WeatherCatV1.10B1784,2013-06-06 19:38:00,
2013-06-06 20:48:00,62.6,49.8,30.21,SSW,202,0.0,1.8,63,0.00,,,0.00,WeatherCatV1.10B1784,2013-06-06 19:48:00,
2013-06-06 20:58:00,62.2,49.9,30.21,SSE,157,1.3,1.3,64,0.00,,,0.00,WeatherCatV1.10B1784,2013-06-06 19:58:00,
2013-06-06 21:08:00,61.7,50.2,30.21,SSE,157,0.0,0.9,66,0.00,,,0.00,WeatherCatV1.10B1784,2013-06-06 20:08:00,
2013-06-06 21:18:00,61.3,49.9,30.22,SSE,157,0.0,0.0,66,0.00,,,0.00,WeatherCatV1.10B1784,2013-06-06 20:18:00,
2013-06-06 21:28:00,60.6,49.7,30.22,SSE,157,0.0,0.0,67,0.00,,,0.00,WeatherCatV1.10B1784,2013-06-06 20:28:00,
2013-06-06 21:38:00,60.1,49.9,30.22,SSE,157,0.0,1.1,69,0.00,,,0.00,WeatherCatV1.10B1784,2013-06-06 20:38:00,
2013-06-06 21:48:00,59.4,49.6,30.22,SSE,157,0.0,0.0,70,0.00,,,0.00,WeatherCatV1.10B1784,2013-06-06 20:48:00,
2013-06-06 21:58:00,58.6,49.6,30.22,SSW,202,1.6,1.6,72,0.00,,,0.00,WeatherCatV1.10B1784,2013-06-06 20:58:00,
2013-06-06 22:08:00,58.1,49.5,30.22,SSW,202,0.0,0.0,73,0.00,,,0.00,WeatherCatV1.10B1784,2013-06-06 21:08:00,
2013-06-06 22:18:00,57.6,49.3,30.22,South,180,1.1,2.0,74,0.00,,,0.00,WeatherCatV1.10B1784,2013-06-06 21:18:00,
2013-06-06 22:28:00,57.0,49.5,30.23,South,180,0.0,1.6,76,0.00,,,0.00,WeatherCatV1.10B1784,2013-06-06 21:28:00,
2013-06-06 22:38:00,56.5,48.9,30.22,South,180,0.0,0.0,76,0.00,,,0.00,WeatherCatV1.10B1784,2013-06-06 21:38:00,
2013-06-06 22:48:00,55.9,48.8,30.23,South,180,0.0,0.9,77,0.00,,,0.00,WeatherCatV1.10B1784,2013-06-06 21:48:00,
2013-06-06 22:58:00,55.2,48.4,30.23,SSW,202,0.0,2.2,78,0.00,,,0.00,WeatherCatV1.10B1784,2013-06-06 21:58:00,
2013-06-06 23:08:00,54.9,48.4,30.23,South,180,0.0,0.0,79,0.00,,,0.00,WeatherCatV1.10B1784,2013-06-06 22:08:00,
2013-06-06 23:18:00,54.3,48.3,30.23,South,180,1.3,2.2,80,0.00,,,0.00,WeatherCatV1.10B1784,2013-06-06 22:18:00,
2013-06-06 23:28:00,54.1,48.5,30.23,South,180,0.0,0.0,81,0.00,,,0.00,WeatherCatV1.10B1784,2013-06-06 22:28:00,
2013-06-06 23:38:00,53.6,47.8,30.23,South,180,0.0,0.0,80,0.00,,,0.00,WeatherCatV1.10B1784,2013-06-06 22:38:00,
2013-06-06 23:48:00,53.2,47.6,30.24,South,180,0.0,0.0,80,0.00,,,0.00,WeatherCatV1.10B1784,2013-06-06 22:48:00,
2013-06-06 23:58:00,52.9,47.2,30.25,South,180,0.0,0.0,81,0.00,,,0.00,WeatherCatV1.10B1784,2013-06-06 22:58:00,